Morehead City, NC

4:31 AM EST on January 31, 2015 (GMT -0500)
Bogue McAlf | Change Station
CLOSE
Current Station
Airport
Location: Swansboro,
Elevation: 23 ft
Nearby Weather Stations

Elev 23 ft 34.69 °N, 77.03 °W | Updated 34 minutes ago

Clear
Clear
29 °F
Feels Like 22 °F
N
7
Wind Variable Wind from NNW

Today
High -- | Low -- °F
--% Chance of Precip.
Yesterday
High -- | Low -- °F
Precip. -- in
7:06 AM 5:35 PM
Waxing Gibbous, 88% visible
Pressure 30.32 in
Visibility 10.0 miles
Clouds Clear
Windchill 22 °F
Dew Point 11 °F
Humidity 47%
Rainfall 0.00 in
Snow Depth Not available.
UV 0 out of 12
Pollen 2.20 out of 12
Air Quality Not available.
Flu Activity Not available.
METAR KNJM 310857Z AUTO 34006KT 10SM CLR M02/M12 A3030 RMK AO2 SLP265 T10171117 52010 $

More Conditions Fewer Conditions

Pressure 30.32 in
Visibility 10.0 miles
Clouds Clear
Windchill 22 °F
Dew Point 11 °F
Humidity 47%
Rainfall 0.00 in
Snow Depth Not available.
UV 0 out of 12
Pollen 2.20 out of 12
Air Quality Not available.
Flu Activity Not available.
METAR KNJM 310857Z AUTO 34006KT 10SM CLR M02/M12 A3030 RMK AO2 SLP265 T10171117 52010 $

More Conditions Fewer Conditions

10-Day Weather Forecast

Almanac

Astronomy

Jan. 31, 2015 Rise Set
Actual Time
Civil Twilight
Nautical Twilight
Astronomical Twilight
Moon
Length of Visible Light
Length of Day
Tomorrow will be .
, % of the Moon is Illuminated

Today's Extremes

State Highs State Lows

Community

WunderPhotos

Upload Photos

1,792,021 photos uploaded!

WunderBlogs® & News

Nearby

Air Quality

  Air Quality AQ Index Pollutant
Not available.

Snow Depth

Station Depth Elevation

Earthquake Activity

City Distance Mag. Time & Date
Minimum magnitude displayed is 2.5.

Coastal Water Temperatures

Place Temperature

Nearby Weather Stations